Time;durP1;ratioP1;P1;durP2;ratioP2;P2;SDS_P1;SDS_P2;PMS_P1;PMS_P2;Temp;Humidity;BMP_temperature;BMP_pressure;BME280_temperature;BME280_humidity;BME280_pressure;Samples;Min_cycle;Max_cycle;Signal;HPM_P1;HPM_P2
2022/12/22 03:26:52;;;;;;;7.40;3.00;;;;;;;;;;103890;1304;22471;-86
2022/12/22 03:29:19;;;;;;;7.90;3.20;;;;;;;;;;103637;1304;24317;-83
2022/12/22 03:31:45;;;;;;;7.40;3.10;;;;;;;;;;103679;1304;25306;-81
2022/12/22 03:34:12;;;;;;;7.90;3.30;;;;;;;;;;103843;1303;22491;-82
2022/12/22 03:36:39;;;;;;;7.70;3.20;;;;;;;;;;103872;1289;22451;-82
2022/12/22 03:39:05;;;;;;;7.60;3.50;;;;;;;;;;103792;1285;25386;-82
2022/12/22 03:47:03;;;;;;;8.20;3.50;;;;;;;;;;103869;1304;25243;-85
2022/12/22 03:49:30;;;;;;;8.20;3.30;;;;;;;;;;103573;1304;22512;-85
2022/12/22 03:51:56;;;;;;;8.10;3.20;;;;;;;;;;104002;1302;22457;-87
2022/12/22 03:54:24;;;;;;;8.30;3.30;;;;;;;;;;103884;1294;24284;-86
2022/12/22 03:56:51;;;;;;;7.20;3.00;;;;;;;;;;103826;1298;25365;-81
2022/12/22 03:59:18;;;;;;;6.90;2.70;;;;;;;;;;103831;1298;22471;-82
2022/12/22 04:01:48;;;;;;;6.60;3.10;;;;;;;;;;103511;1304;22511;-83
2022/12/22 04:04:15;;;;;;;7.70;3.00;;;;;;;;;;103591;1306;22479;-82
2022/12/22 04:06:42;;;;;;;9.50;3.80;;;;;;;;;;103568;1305;22458;-85
2022/12/22 04:09:09;;;;;;;8.90;3.70;;;;;;;;;;103549;1305;22454;-84
2022/12/22 04:14:21;;;;;;;9.40;4.30;;;;;;;;;;103576;1303;22418;-81
2022/12/22 04:16:48;;;;;;;9.60;3.90;;;;;;;;;;103544;1304;24240;-87
2022/12/22 04:19:15;;;;;;;9.30;4.60;;;;;;;;;;103516;1306;22466;-83
2022/12/22 04:21:42;;;;;;;9.20;4.40;;;;;;;;;;103575;1307;22471;-83
2022/12/22 04:24:09;;;;;;;9.00;4.10;;;;;;;;;;103559;1306;25262;-82
2022/12/22 04:26:36;;;;;;;9.00;4.50;;;;;;;;;;103510;1306;24314;-82
2022/12/22 04:29:03;;;;;;;10.90;4.70;;;;;;;;;;103524;1304;22488;-84
2022/12/22 04:31:30;;;;;;;9.90;4.60;;;;;;;;;;103547;1304;26537;-83
2022/12/22 04:33:56;;;;;;;9.00;4.10;;;;;;;;;;103572;1307;22465;-81
2022/12/22 04:36:23;;;;;;;8.60;4.70;;;;;;;;;;103652;1305;23019;-81
2022/12/22 04:38:50;;;;;;;8.90;4.30;;;;;;;;;;103776;1305;24720;-82
2022/12/22 04:41:16;;;;;;;8.50;4.20;;;;;;;;;;103510;1306;25321;-85
2022/12/22 04:43:43;;;;;;;9.30;4.40;;;;;;;;;;103291;1306;25225;-84
2022/12/22 04:46:10;;;;;;;10.90;5.00;;;;;;;;;;103538;1305;22476;-82
2022/12/22 04:48:36;;;;;;;11.00;4.60;;;;;;;;;;103491;1307;22465;-82
2022/12/22 04:51:03;;;;;;;10.20;4.60;;;;;;;;;;103582;1306;22454;-82
2022/12/22 04:53:30;;;;;;;10.50;4.50;;;;;;;;;;103439;1304;24313;-81
2022/12/22 04:55:58;;;;;;;10.40;4.60;;;;;;;;;;103563;1301;22476;-82
2022/12/22 04:58:25;;;;;;;10.90;4.80;;;;;;;;;;103553;1306;24453;-85
2022/12/22 05:00:52;;;;;;;10.70;5.10;;;;;;;;;;103549;1306;24249;-82
2022/12/22 05:03:18;;;;;;;12.00;5.10;;;;;;;;;;103568;1306;22497;-80
2022/12/22 05:05:45;;;;;;;12.80;5.80;;;;;;;;;;103624;1304;26450;-85
2022/12/22 05:08:12;;;;;;;12.70;5.70;;;;;;;;;;103588;1304;25205;-81
2022/12/22 05:10:38;;;;;;;12.50;5.70;;;;;;;;;;103621;1304;22454;-82
2022/12/22 05:13:05;;;;;;;13.40;5.60;;;;;;;;;;103825;1295;22480;-85
2022/12/22 05:15:33;;;;;;;12.80;5.00;;;;;;;;;;103866;1302;22466;-82
2022/12/22 05:18:00;;;;;;;11.70;5.10;;;;;;;;;;103664;1304;22457;-78
2022/12/22 05:20:27;;;;;;;13.00;6.00;;;;;;;;;;103630;1305;22855;-82
2022/12/22 05:22:54;;;;;;;13.00;5.60;;;;;;;;;;103569;1304;25317;-84
2022/12/22 05:25:20;;;;;;;12.70;5.50;;;;;;;;;;103534;1299;24421;-82
2022/12/22 05:27:48;;;;;;;13.00;6.00;;;;;;;;;;103556;1304;22434;-85
2022/12/22 05:30:15;;;;;;;12.70;5.50;;;;;;;;;;103467;1277;22462;-80
2022/12/22 05:32:42;;;;;;;13.20;5.50;;;;;;;;;;103889;1298;22535;-83
2022/12/22 05:35:09;;;;;;;13.00;5.90;;;;;;;;;;103671;1291;22472;-83
2022/12/22 05:37:35;;;;;;;15.20;6.40;;;;;;;;;;103655;1304;22494;-84
2022/12/22 05:40:02;;;;;;;12.50;5.80;;;;;;;;;;103903;1304;22478;-84
2022/12/22 05:42:35;;;;;;;11.40;5.30;;;;;;;;;;103642;1297;22467;-82
2022/12/22 05:45:07;;;;;;;12.10;5.20;;;;;;;;;;103835;1304;25332;-81
2022/12/22 05:47:33;;;;;;;12.70;5.50;;;;;;;;;;103591;1304;22515;-81
2022/12/22 05:50:00;;;;;;;13.40;5.70;;;;;;;;;;103585;1307;22486;-81
2022/12/22 05:52:27;;;;;;;14.30;6.30;;;;;;;;;;103828;1291;24414;-86
2022/12/22 05:54:54;;;;;;;15.20;6.80;;;;;;;;;;103657;1304;22539;-81
2022/12/22 05:57:20;;;;;;;18.20;8.00;;;;;;;;;;103855;1304;24318;-81
2022/12/22 05:59:47;;;;;;;17.80;7.90;;;;;;;;;;103917;1304;24295;-81
2022/12/22 06:02:14;;;;;;;22.00;8.60;;;;;;;;;;103894;1303;24291;-82
2022/12/22 06:04:41;;;;;;;20.60;8.50;;;;;;;;;;103848;1304;22468;-81
2022/12/22 06:07:07;;;;;;;20.80;8.10;;;;;;;;;;103815;1299;25328;-85
2022/12/22 06:09:34;;;;;;;17.80;7.80;;;;;;;;;;103607;1304;25310;-82
2022/12/22 06:12:01;;;;;;;14.10;6.70;;;;;;;;;;103501;1303;22467;-87
2022/12/22 06:14:27;;;;;;;14.10;7.40;;;;;;;;;;103865;1302;22460;-85
2022/12/22 06:16:54;;;;;;;16.70;7.20;;;;;;;;;;103567;1302;25296;-83
2022/12/22 06:19:21;;;;;;;18.20;8.30;;;;;;;;;;103858;1296;22462;-82
2022/12/22 06:21:47;;;;;;;14.50;7.10;;;;;;;;;;103899;1304;24080;-85
2022/12/22 06:24:14;;;;;;;15.50;6.70;;;;;;;;;;103784;1304;24237;-84
2022/12/22 06:26:41;;;;;;;13.60;6.10;;;;;;;;;;103820;1304;24280;-80
2022/12/22 06:29:07;;;;;;;13.60;6.30;;;;;;;;;;103562;1304;22461;-83
2022/12/22 06:31:34;;;;;;;12.10;5.70;;;;;;;;;;103586;1304;24380;-82
2022/12/22 06:34:01;;;;;;;15.80;7.10;;;;;;;;;;103613;1304;22466;-79
2022/12/22 06:36:27;;;;;;;15.40;7.50;;;;;;;;;;103561;1304;25299;-83
2022/12/22 06:38:54;;;;;;;18.00;7.80;;;;;;;;;;103580;1304;22525;-79
2022/12/22 06:44:06;;;;;;;13.90;6.10;;;;;;;;;;103648;1298;24318;-84
2022/12/22 06:46:33;;;;;;;11.80;5.40;;;;;;;;;;103581;1282;24438;-84
2022/12/22 06:48:59;;;;;;;11.60;5.50;;;;;;;;;;103783;1304;22479;-81
2022/12/22 06:51:26;;;;;;;9.90;4.60;;;;;;;;;;103487;1308;22874;-84
2022/12/22 06:53:52;;;;;;;12.90;5.30;;;;;;;;;;103824;1304;24218;-81
2022/12/22 06:56:19;;;;;;;13.90;6.70;;;;;;;;;;103651;1304;22458;-80
2022/12/22 06:58:46;;;;;;;14.20;6.10;;;;;;;;;;103895;1304;22461;-80
2022/12/22 07:01:13;;;;;;;14.30;6.80;;;;;;;;;;103783;1304;22466;-78
2022/12/22 07:03:39;;;;;;;16.20;7.30;;;;;;;;;;103573;1303;24308;-82
2022/12/22 07:06:06;;;;;;;17.90;8.30;;;;;;;;;;103475;1304;22439;-83
2022/12/22 07:08:33;;;;;;;20.20;7.60;;;;;;;;;;103560;1304;22731;-79
2022/12/22 07:10:59;;;;;;;14.60;6.80;;;;;;;;;;103816;1304;24349;-82
2022/12/22 07:13:31;;;;;;;17.30;8.10;;;;;;;;;;103833;1303;22467;-82
2022/12/22 07:15:59;;;;;;;15.80;7.50;;;;;;;;;;103780;1304;22472;-85
2022/12/22 07:18:26;;;;;;;14.10;7.10;;;;;;;;;;103661;1304;22553;-83
2022/12/22 07:20:52;;;;;;;18.30;7.60;;;;;;;;;;103821;1304;24234;-78
2022/12/22 07:23:19;;;;;;;16.80;7.20;;;;;;;;;;103842;1304;22818;-80
2022/12/22 07:25:45;;;;;;;15.90;7.20;;;;;;;;;;103503;1299;25450;-82
2022/12/22 07:28:12;;;;;;;15.80;7.80;;;;;;;;;;103743;1304;24318;-79
2022/12/22 07:30:39;;;;;;;18.70;7.70;;;;;;;;;;103540;1304;21739;-84
2022/12/22 07:33:05;;;;;;;16.60;7.50;;;;;;;;;;103539;1304;22472;-84
2022/12/22 07:35:32;;;;;;;19.00;7.80;;;;;;;;;;103653;1304;24325;-78
2022/12/22 07:37:59;;;;;;;16.20;7.00;;;;;;;;;;103889;1296;23259;-83
2022/12/22 07:40:26;;;;;;;20.10;6.60;;;;;;;;;;103562;1297;24330;-81
2022/12/22 07:42:56;;;;;;;16.50;6.10;;;;;;;;;;103565;1303;25353;-79
2022/12/22 07:45:23;;;;;;;13.10;5.50;;;;;;;;;;103578;1307;22489;-81
2022/12/22 07:47:50;;;;;;;13.90;5.90;;;;;;;;;;103515;1304;24368;-79
2022/12/22 07:50:26;;;;;;;18.40;6.90;;;;;;;;;;103872;1304;22480;-82
2022/12/22 07:52:54;;;;;;;19.20;7.90;;;;;;;;;;103772;1304;23886;-80
2022/12/22 07:55:22;;;;;;;19.20;9.00;;;;;;;;;;103586;1304;22421;-77
2022/12/22 07:57:49;;;;;;;22.70;8.50;;;;;;;;;;103820;1298;22591;-84
2022/12/22 08:00:16;;;;;;;22.90;8.50;;;;;;;;;;103647;1304;24308;-83
2022/12/22 08:02:47;;;;;;;22.30;8.40;;;;;;;;;;103635;1304;22496;-80
2022/12/22 08:05:13;;;;;;;18.60;6.70;;;;;;;;;;103849;1298;22471;-80
2022/12/22 08:07:40;;;;;;;18.00;7.80;;;;;;;;;;103829;1288;22503;-78
2022/12/22 08:10:07;;;;;;;14.20;6.70;;;;;;;;;;103830;1303;22504;-84
2022/12/22 08:12:34;;;;;;;22.10;9.80;;;;;;;;;;103554;1304;22536;-82
2022/12/22 08:15:01;;;;;;;25.30;10.00;;;;;;;;;;103587;1304;22595;-79
2022/12/22 08:17:28;;;;;;;22.90;9.80;;;;;;;;;;103594;1285;22471;-83
2022/12/22 08:19:54;;;;;;;18.00;8.00;;;;;;;;;;103591;1291;22498;-81
2022/12/22 08:22:22;;;;;;;22.70;9.60;;;;;;;;;;103625;1304;24422;-79
2022/12/22 08:24:50;;;;;;;19.70;8.80;;;;;;;;;;103645;1304;22839;-85
2022/12/22 08:27:18;;;;;;;18.00;7.10;;;;;;;;;;103791;1304;25322;-82
2022/12/22 08:29:47;;;;;;;20.30;8.40;;;;;;;;;;103532;1299;25698;-82
2022/12/22 08:32:14;;;;;;;14.20;6.50;;;;;;;;;;103596;1304;22472;-79
2022/12/22 08:34:41;;;;;;;15.90;6.00;;;;;;;;;;103795;1304;26471;-78
2022/12/22 08:37:10;;;;;;;12.10;5.70;;;;;;;;;;103630;1304;22470;-79
2022/12/22 08:39:39;;;;;;;13.40;5.30;;;;;;;;;;103641;1304;22481;-83
2022/12/22 08:42:07;;;;;;;15.30;6.40;;;;;;;;;;103809;1304;25522;-79
2022/12/22 08:44:35;;;;;;;13.80;6.50;;;;;;;;;;103540;1289;24705;-82
2022/12/22 08:47:02;;;;;;;14.60;6.00;;;;;;;;;;103788;1296;22461;-76
2022/12/22 08:49:29;;;;;;;12.40;5.50;;;;;;;;;;103520;1304;25274;-82
2022/12/22 08:51:56;;;;;;;12.70;5.70;;;;;;;;;;103551;1282;22469;-82
2022/12/22 08:54:22;;;;;;;12.40;6.10;;;;;;;;;;103624;1303;22783;-77
2022/12/22 08:56:49;;;;;;;13.10;6.60;;;;;;;;;;103545;1304;24220;-82
2022/12/22 08:59:16;;;;;;;12.70;6.40;;;;;;;;;;103432;1301;22592;-80
2022/12/22 09:01:46;;;;;;;12.40;6.40;;;;;;;;;;103543;1304;22465;-80
2022/12/22 09:04:14;;;;;;;12.40;6.60;;;;;;;;;;103811;1304;22542;-81
2022/12/22 09:06:40;;;;;;;16.30;6.80;;;;;;;;;;103549;1304;23547;-78
2022/12/22 09:09:08;;;;;;;15.80;7.60;;;;;;;;;;103828;1304;22423;-82
2022/12/22 09:11:35;;;;;;;16.60;8.00;;;;;;;;;;103547;1299;22460;-82
2022/12/22 09:14:02;;;;;;;13.00;6.60;;;;;;;;;;103755;1304;24198;-78
2022/12/22 09:16:30;;;;;;;13.20;6.60;;;;;;;;;;103546;1304;22489;-84
2022/12/22 09:18:56;;;;;;;13.90;7.10;;;;;;;;;;103645;1283;24975;-83
2022/12/22 09:21:24;;;;;;;17.40;8.50;;;;;;;;;;103621;1304;24024;-79
2022/12/22 09:23:51;;;;;;;17.00;8.20;;;;;;;;;;103670;1304;22600;-77
2022/12/22 09:26:19;;;;;;;16.20;6.50;;;;;;;;;;103871;1302;25194;-81
2022/12/22 09:28:46;;;;;;;15.20;5.70;;;;;;;;;;103536;1295;22476;-82
2022/12/22 09:31:13;;;;;;;13.90;5.60;;;;;;;;;;103536;1304;25372;-78
2022/12/22 09:33:39;;;;;;;15.50;5.50;;;;;;;;;;103763;1304;22522;-83
2022/12/22 09:36:08;;;;;;;11.50;4.90;;;;;;;;;;103572;1302;25348;-77
2022/12/22 09:38:36;;;;;;;11.90;4.90;;;;;;;;;;103730;1304;25298;-82
2022/12/22 09:41:08;;;;;;;14.10;5.30;;;;;;;;;;103868;1304;24262;-79
2022/12/22 09:43:35;;;;;;;16.60;6.50;;;;;;;;;;103871;1304;22508;-84
2022/12/22 09:46:02;;;;;;;14.80;5.20;;;;;;;;;;103905;1304;24275;-77
2022/12/22 09:48:33;;;;;;;18.70;6.90;;;;;;;;;;103568;1303;22480;-82
2022/12/22 09:51:00;;;;;;;18.10;6.30;;;;;;;;;;103797;1304;23301;-78
2022/12/22 09:53:27;;;;;;;15.60;6.90;;;;;;;;;;103789;1288;24225;-83
2022/12/22 09:55:54;;;;;;;10.80;4.60;;;;;;;;;;103846;1304;24590;-80
2022/12/22 09:58:25;;;;;;;11.30;5.20;;;;;;;;;;103833;1283;23873;-78
2022/12/22 10:00:57;;;;;;;10.50;4.10;;;;;;;;;;103876;1296;22715;-78
2022/12/22 10:03:24;;;;;;;11.10;4.80;;;;;;;;;;103845;1303;22476;-77
2022/12/22 10:05:57;;;;;;;11.30;4.50;;;;;;;;;;103891;1296;22714;-79
2022/12/22 10:08:28;;;;;;;16.90;6.30;;;;;;;;;;103770;1303;25283;-81
2022/12/22 10:10:55;;;;;;;10.40;3.90;;;;;;;;;;103820;1303;22459;-81
2022/12/22 10:13:22;;;;;;;9.10;3.20;;;;;;;;;;103793;1289;25345;-79
2022/12/22 10:15:49;;;;;;;8.40;3.60;;;;;;;;;;103753;1304;22460;-81
2022/12/22 10:18:17;;;;;;;8.50;3.30;;;;;;;;;;103717;1278;22584;-80
2022/12/22 10:20:46;;;;;;;6.70;2.70;;;;;;;;;;103746;1283;25265;-77
2022/12/22 10:23:27;;;;;;;7.20;2.00;;;;;;;;;;103700;1285;24181;-77
2022/12/22 10:25:57;;;;;;;7.20;2.70;;;;;;;;;;103678;1304;22481;-80
2022/12/22 10:28:26;;;;;;;9.00;3.50;;;;;;;;;;103955;1289;22524;-76
2022/12/22 10:31:12;;;;;;;10.30;4.50;;;;;;;;;;103729;1292;22470;-79
2022/12/22 10:33:40;;;;;;;8.90;3.30;;;;;;;;;;103578;1278;22475;-78
2022/12/22 10:36:07;;;;;;;8.30;3.40;;;;;;;;;;103857;1278;22505;-77
2022/12/22 10:38:39;;;;;;;17.20;6.60;;;;;;;;;;103796;1281;22457;-78
2022/12/22 10:41:14;;;;;;;10.40;4.30;;;;;;;;;;103761;1296;25645;-75
2022/12/22 10:43:49;;;;;;;10.20;4.00;;;;;;;;;;103620;1285;22453;-75
2022/12/22 10:46:18;;;;;;;8.10;2.60;;;;;;;;;;103765;1289;25285;-77
2022/12/22 10:48:45;;;;;;;7.40;2.60;;;;;;;;;;103462;1282;24673;-80
2022/12/22 10:51:13;;;;;;;7.10;2.20;;;;;;;;;;103646;1288;23913;-76
2022/12/22 10:53:48;;;;;;;6.10;2.30;;;;;;;;;;103703;1289;26478;-79
2022/12/22 10:56:20;;;;;;;8.90;2.50;;;;;;;;;;103646;1305;25325;-77
2022/12/22 10:58:52;;;;;;;8.80;2.40;;;;;;;;;;103627;1282;25355;-77
2022/12/22 11:01:37;;;;;;;8.30;3.10;;;;;;;;;;103606;1276;25508;-77
2022/12/22 11:04:15;;;;;;;8.30;2.80;;;;;;;;;;103773;1288;24256;-77
2022/12/22 11:06:43;;;;;;;9.00;3.00;;;;;;;;;;103627;1272;22466;-82
2022/12/22 11:09:10;;;;;;;16.20;6.60;;;;;;;;;;103716;1296;23015;-83
2022/12/22 11:11:40;;;;;;;10.50;4.10;;;;;;;;;;103548;1304;22580;-78
2022/12/22 11:14:10;;;;;;;7.70;2.80;;;;;;;;;;107264;1297;22711;-75
2022/12/22 11:16:42;;;;;;;10.90;4.20;;;;;;;;;;107304;1295;22086;-74
2022/12/22 11:19:24;;;;;;;9.60;3.10;;;;;;;;;;107140;1295;22110;-75
2022/12/22 11:21:51;;;;;;;9.10;3.40;;;;;;;;;;107200;1302;22767;-75
2022/12/22 11:24:36;;;;;;;10.20;3.90;;;;;;;;;;107220;1304;22531;-76
2022/12/22 11:27:16;;;;;;;9.70;3.50;;;;;;;;;;107205;1304;22317;-75
2022/12/22 11:30:04;;;;;;;8.70;3.30;;;;;;;;;;107092;1303;22130;-75
2022/12/22 11:32:49;;;;;;;9.30;3.50;;;;;;;;;;107349;1296;22104;-76
2022/12/22 11:35:22;;;;;;;10.50;4.20;;;;;;;;;;107089;1304;22360;-76
2022/12/22 11:37:52;;;;;;;11.10;4.50;;;;;;;;;;107063;1304;22913;-76
2022/12/22 11:40:19;;;;;;;11.40;5.10;;;;;;;;;;107065;1304;22186;-76
2022/12/22 11:43:05;;;;;;;12.90;4.50;;;;;;;;;;107313;1297;22061;-76
2022/12/22 11:45:41;;;;;;;9.60;3.30;;;;;;;;;;107164;1303;22124;-76
2022/12/22 11:48:11;;;;;;;11.10;5.00;;;;;;;;;;107127;1304;22097;-76
2022/12/22 11:50:43;;;;;;;10.40;3.70;;;;;;;;;;107094;1305;22079;-76
2022/12/22 11:53:23;;;;;;;10.50;3.50;;;;;;;;;;107111;1297;22070;-75
2022/12/22 11:56:10;;;;;;;13.40;4.10;;;;;;;;;;107100;1306;22203;-76
2022/12/22 11:58:47;;;;;;;10.80;4.20;;;;;;;;;;107167;1288;22053;-77
2022/12/22 12:01:26;;;;;;;9.60;3.90;;;;;;;;;;106891;1304;22117;-76
2022/12/22 12:04:01;;;;;;;9.50;4.10;;;;;;;;;;107097;1304;22088;-76
2022/12/22 12:06:47;;;;;;;11.20;5.20;;;;;;;;;;106964;1304;22507;-76
2022/12/22 12:09:32;;;;;;;11.20;3.70;;;;;;;;;;107022;1305;22164;-77
2022/12/22 12:11:59;;;;;;;10.50;3.80;;;;;;;;;;107059;1306;22172;-76
2022/12/22 12:14:33;;;;;;;10.20;4.40;;;;;;;;;;106948;1306;22077;-77
2022/12/22 12:17:06;;;;;;;12.10;4.80;;;;;;;;;;107273;1299;22035;-75
2022/12/22 12:19:44;;;;;;;9.60;4.20;;;;;;;;;;105976;1304;1430467;-76
2022/12/22 12:22:37;;;;;;;8.60;3.30;;;;;;;;;;107190;1297;22048;-77
2022/12/22 12:25:10;;;;;;;10.00;3.40;;;;;;;;;;107077;1304;22112;-75
2022/12/22 12:27:40;;;;;;;8.80;3.50;;;;;;;;;;107117;1304;22077;-76
2022/12/22 12:30:15;;;;;;;8.70;2.90;;;;;;;;;;106991;1306;22712;-76
2022/12/22 12:32:49;;;;;;;8.30;3.40;;;;;;;;;;106934;1307;22046;-76
2022/12/22 12:35:23;;;;;;;7.60;3.20;;;;;;;;;;106917;1307;22059;-76
2022/12/22 12:37:55;;;;;;;7.70;3.20;;;;;;;;;;106939;1306;22129;-75
2022/12/22 12:40:25;;;;;;;9.60;3.60;;;;;;;;;;106902;1304;22286;-74
2022/12/22 12:42:52;;;;;;;7.80;3.20;;;;;;;;;;107114;1304;22731;-75
2022/12/22 12:45:32;;;;;;;7.20;2.80;;;;;;;;;;106968;1304;23031;-76
2022/12/22 12:48:19;;;;;;;8.90;3.10;;;;;;;;;;107024;1304;22140;-75
2022/12/22 12:50:46;;;;;;;7.20;2.60;;;;;;;;;;107309;1279;22075;-74
2022/12/22 12:53:13;;;;;;;6.70;2.60;;;;;;;;;;107023;1305;22836;-74
2022/12/22 12:55:54;;;;;;;8.70;3.30;;;;;;;;;;107095;1299;22127;-75
2022/12/22 12:58:36;;;;;;;9.40;3.90;;;;;;;;;;106827;1307;22070;-76
2022/12/22 13:01:10;;;;;;;9.00;3.50;;;;;;;;;;106938;1307;22831;-74
2022/12/22 13:03:39;;;;;;;8.30;3.30;;;;;;;;;;106996;1299;22098;-75
2022/12/22 13:06:08;;;;;;;8.80;2.80;;;;;;;;;;106952;1298;22098;-76
2022/12/22 13:08:49;;;;;;;8.50;3.10;;;;;;;;;;106916;1302;22077;-76
2022/12/22 13:11:18;;;;;;;7.90;2.70;;;;;;;;;;107014;1302;22056;-76
2022/12/22 13:13:46;;;;;;;10.80;4.30;;;;;;;;;;106871;1307;22096;-76
2022/12/22 13:16:13;;;;;;;8.90;3.30;;;;;;;;;;106978;1307;22040;-74
2022/12/22 13:18:43;;;;;;;13.50;5.30;;;;;;;;;;106977;1305;22107;-75
2022/12/22 13:21:24;;;;;;;13.80;5.50;;;;;;;;;;107156;1285;22038;-75
2022/12/22 13:23:53;;;;;;;17.60;7.10;;;;;;;;;;107105;1306;22048;-74
2022/12/22 13:26:22;;;;;;;14.70;5.50;;;;;;;;;;107101;1305;22047;-75
2022/12/22 13:28:59;;;;;;;12.30;4.40;;;;;;;;;;106986;1304;22043;-74
2022/12/22 13:31:25;;;;;;;12.40;4.20;;;;;;;;;;106894;1307;22077;-74
2022/12/22 13:34:13;;;;;;;9.50;3.30;;;;;;;;;;107002;1307;22106;-75
2022/12/22 13:36:42;;;;;;;10.30;3.70;;;;;;;;;;106665;1299;22115;-75
2022/12/22 13:39:12;;;;;;;8.20;2.90;;;;;;;;;;106520;1308;22123;-74
2022/12/22 13:41:44;;;;;;;9.60;3.60;;;;;;;;;;106447;1312;22145;-76
2022/12/22 13:44:14;;;;;;;7.70;2.90;;;;;;;;;;106362;1313;22042;-75
2022/12/22 13:46:41;;;;;;;9.20;3.60;;;;;;;;;;106513;1312;23195;-75
2022/12/22 13:49:12;;;;;;;10.60;3.80;;;;;;;;;;106517;1312;22121;-75
2022/12/22 13:51:38;;;;;;;10.80;3.60;;;;;;;;;;106657;1290;22082;-75
2022/12/22 13:54:08;;;;;;;10.20;3.40;;;;;;;;;;106441;1313;22112;-77
2022/12/22 13:56:36;;;;;;;10.30;3.50;;;;;;;;;;106424;1313;22198;-82
2022/12/22 13:59:03;;;;;;;9.30;3.20;;;;;;;;;;106389;1313;22891;-81
2022/12/22 14:01:31;;;;;;;10.20;3.90;;;;;;;;;;106437;1313;22184;-81
2022/12/22 14:04:02;;;;;;;8.80;3.90;;;;;;;;;;106556;1312;22871;-82
2022/12/22 14:06:32;;;;;;;10.40;4.10;;;;;;;;;;106561;1305;22146;-80
2022/12/22 14:09:13;;;;;;;11.00;4.70;;;;;;;;;;106285;1313;22279;-79
2022/12/22 14:11:42;;;;;;;9.10;3.70;;;;;;;;;;106431;1313;22258;-80
2022/12/22 14:14:09;;;;;;;8.70;3.10;;;;;;;;;;106819;1291;22479;-79
2022/12/22 14:16:44;;;;;;;11.10;3.70;;;;;;;;;;107105;1285;22223;-75
2022/12/22 14:19:15;;;;;;;15.20;5.70;;;;;;;;;;106920;1297;22036;-75
2022/12/22 14:21:42;;;;;;;16.80;5.80;;;;;;;;;;106751;1307;22261;-75
2022/12/22 14:24:13;;;;;;;25.20;8.90;;;;;;;;;;106883;1307;22642;-75
2022/12/22 14:26:39;;;;;;;19.10;6.40;;;;;;;;;;107026;1306;22076;-75
2022/12/22 14:29:11;;;;;;;12.60;4.50;;;;;;;;;;107040;1306;22725;-75
2022/12/22 14:31:53;;;;;;;13.10;5.00;;;;;;;;;;107253;1300;22012;-76
2022/12/22 14:34:24;;;;;;;14.30;5.20;;;;;;;;;;106747;1306;22120;-76
2022/12/22 14:36:51;;;;;;;16.20;6.00;;;;;;;;;;106929;1297;22085;-75
2022/12/22 14:39:25;;;;;;;11.90;4.90;;;;;;;;;;106872;1307;23117;-76
2022/12/22 14:41:56;;;;;;;10.90;4.20;;;;;;;;;;106869;1307;22113;-76
2022/12/22 14:44:24;;;;;;;13.20;4.80;;;;;;;;;;106831;1305;22296;-75
2022/12/22 14:47:00;;;;;;;14.00;4.90;;;;;;;;;;106945;1305;22072;-78
2022/12/22 14:49:27;;;;;;;11.30;4.80;;;;;;;;;;106951;1307;22538;-76
2022/12/22 14:51:55;;;;;;;12.00;5.40;;;;;;;;;;106766;1310;22082;-77
2022/12/22 14:54:24;;;;;;;12.40;5.60;;;;;;;;;;106905;1307;22818;-75
2022/12/22 14:56:51;;;;;;;9.00;4.20;;;;;;;;;;106769;1307;22045;-76
2022/12/22 14:59:26;;;;;;;9.30;4.30;;;;;;;;;;106781;1307;22097;-76
2022/12/22 15:01:57;;;;;;;12.20;4.60;;;;;;;;;;106898;1309;22751;-76
2022/12/22 15:04:24;;;;;;;12.60;4.50;;;;;;;;;;106967;1307;22041;-76
2022/12/22 15:07:02;;;;;;;13.00;4.30;;;;;;;;;;107159;1300;22083;-76
2022/12/22 15:09:30;;;;;;;12.30;4.90;;;;;;;;;;106996;1307;22086;-75
2022/12/22 15:12:10;;;;;;;12.40;4.50;;;;;;;;;;106968;1303;22012;-75
2022/12/22 15:14:37;;;;;;;13.90;5.60;;;;;;;;;;107117;1306;22057;-76
2022/12/22 15:17:04;;;;;;;13.20;5.30;;;;;;;;;;106926;1307;22107;-76
2022/12/22 15:19:36;;;;;;;13.20;5.00;;;;;;;;;;106932;1307;22748;-75
2022/12/22 15:22:06;;;;;;;11.30;4.80;;;;;;;;;;106896;1308;22090;-74
2022/12/22 15:24:33;;;;;;;13.60;5.90;;;;;;;;;;106897;1308;22050;-76
2022/12/22 15:27:00;;;;;;;14.30;5.50;;;;;;;;;;106930;1310;21952;-76
2022/12/22 15:29:27;;;;;;;13.30;5.30;;;;;;;;;;106925;1309;22061;-76
2022/12/22 15:31:55;;;;;;;12.40;5.80;;;;;;;;;;107144;1301;22746;-76
2022/12/22 15:34:24;;;;;;;17.40;6.80;;;;;;;;;;106855;1305;22030;-76
2022/12/22 15:36:50;;;;;;;18.40;7.50;;;;;;;;;;106905;1309;22706;-76
2022/12/22 15:39:19;;;;;;;22.40;9.60;;;;;;;;;;106877;1309;22093;-77
2022/12/22 15:41:47;;;;;;;19.20;8.40;;;;;;;;;;106764;1310;22126;-77
2022/12/22 15:44:14;;;;;;;20.50;8.30;;;;;;;;;;106939;1288;21963;-77
2022/12/22 15:46:43;;;;;;;17.30;8.00;;;;;;;;;;106947;1303;21933;-76
2022/12/22 15:49:29;;;;;;;18.40;7.70;;;;;;;;;;106931;1307;22525;-75
2022/12/22 15:51:59;;;;;;;21.60;8.70;;;;;;;;;;106911;1308;22101;-76
2022/12/22 15:54:26;;;;;;;19.20;8.20;;;;;;;;;;106860;1307;22093;-77
2022/12/22 15:56:54;;;;;;;17.50;7.00;;;;;;;;;;106901;1313;22088;-77
2022/12/22 15:59:27;;;;;;;20.20;7.60;;;;;;;;;;106841;1308;22072;-75
2022/12/22 16:01:56;;;;;;;17.60;7.00;;;;;;;;;;106725;1310;22675;-76
2022/12/22 16:04:23;;;;;;;16.60;6.50;;;;;;;;;;106889;1307;22723;-76
2022/12/22 16:06:50;;;;;;;17.10;7.50;;;;;;;;;;107035;1302;22039;-75
2022/12/22 16:09:22;;;;;;;17.60;7.20;;;;;;;;;;106915;1307;22048;-76
2022/12/22 16:11:50;;;;;;;15.30;6.90;;;;;;;;;;106910;1307;22760;-77
2022/12/22 16:14:18;;;;;;;17.20;7.10;;;;;;;;;;106890;1305;22018;-76
2022/12/22 16:16:47;;;;;;;14.40;5.00;;;;;;;;;;106690;1311;22059;-77
2022/12/22 16:19:17;;;;;;;12.60;5.30;;;;;;;;;;106691;1307;22053;-76
2022/12/22 16:21:48;;;;;;;12.70;4.70;;;;;;;;;;106745;1307;22157;-76
2022/12/22 16:24:30;;;;;;;16.20;5.30;;;;;;;;;;106736;1307;21842;-77
2022/12/22 16:26:57;;;;;;;11.30;4.90;;;;;;;;;;106908;1307;22099;-76
2022/12/22 16:29:24;;;;;;;12.90;5.00;;;;;;;;;;106891;1307;22080;-76
2022/12/22 16:31:51;;;;;;;14.00;5.20;;;;;;;;;;106907;1299;22489;-76
2022/12/22 16:34:19;;;;;;;13.70;5.50;;;;;;;;;;106748;1308;23168;-78
2022/12/22 16:36:46;;;;;;;13.60;5.40;;;;;;;;;;106687;1307;22048;-75
2022/12/22 16:39:12;;;;;;;13.00;4.90;;;;;;;;;;106906;1307;22696;-76
2022/12/22 16:41:40;;;;;;;14.30;6.20;;;;;;;;;;106751;1307;22108;-76
2022/12/22 16:44:08;;;;;;;15.90;6.30;;;;;;;;;;106917;1307;21653;-76
2022/12/22 16:46:38;;;;;;;10.40;4.20;;;;;;;;;;106920;1307;22719;-76
2022/12/22 16:49:06;;;;;;;13.40;5.80;;;;;;;;;;106937;1307;22079;-76
2022/12/22 16:51:36;;;;;;;14.70;6.20;;;;;;;;;;106913;1307;22156;-76
2022/12/22 16:54:03;;;;;;;12.80;5.10;;;;;;;;;;106951;1306;22057;-76
2022/12/22 16:56:30;;;;;;;15.80;6.60;;;;;;;;;;106852;1307;22059;-76
2022/12/22 16:58:59;;;;;;;15.50;5.90;;;;;;;;;;106800;1308;22067;-76
2022/12/22 17:01:36;;;;;;;18.10;7.50;;;;;;;;;;106721;1310;22127;-76
2022/12/22 17:04:09;;;;;;;16.20;7.20;;;;;;;;;;106769;1310;22830;-76
2022/12/22 17:06:37;;;;;;;14.00;6.60;;;;;;;;;;106712;1304;22731;-76
2022/12/22 17:09:06;;;;;;;13.90;6.30;;;;;;;;;;106913;1303;22177;-76
2022/12/22 17:11:36;;;;;;;13.70;5.10;;;;;;;;;;106861;1307;22102;-76
2022/12/22 17:14:06;;;;;;;12.40;4.40;;;;;;;;;;106910;1307;22110;-76
2022/12/22 17:16:34;;;;;;;11.90;4.20;;;;;;;;;;106764;1307;22134;-76
2022/12/22 17:19:02;;;;;;;13.30;4.90;;;;;;;;;;106919;1300;22565;-75
2022/12/22 17:21:30;;;;;;;13.30;6.00;;;;;;;;;;106756;1307;22139;-76
2022/12/22 17:24:02;;;;;;;16.30;5.80;;;;;;;;;;106973;1302;22593;-75
2022/12/22 17:26:31;;;;;;;16.60;6.50;;;;;;;;;;106658;1307;22927;-76
2022/12/22 17:28:59;;;;;;;16.10;6.50;;;;;;;;;;106896;1307;21949;-75
2022/12/22 17:31:26;;;;;;;20.20;7.30;;;;;;;;;;106847;1307;22719;-75
2022/12/22 17:33:54;;;;;;;17.30;6.70;;;;;;;;;;106917;1307;22056;-76
2022/12/22 17:36:29;;;;;;;16.40;6.20;;;;;;;;;;106831;1307;22110;-76
2022/12/22 17:38:57;;;;;;;14.60;6.20;;;;;;;;;;106786;1302;22062;-76
2022/12/22 17:41:24;;;;;;;14.00;5.90;;;;;;;;;;106874;1307;22754;-75
2022/12/22 17:43:51;;;;;;;16.00;7.20;;;;;;;;;;106791;1310;22106;-76
2022/12/22 17:46:19;;;;;;;16.20;7.40;;;;;;;;;;106890;1300;22864;-78
2022/12/22 17:48:49;;;;;;;13.90;6.10;;;;;;;;;;106793;1305;22070;-75
2022/12/22 17:51:19;;;;;;;14.20;6.00;;;;;;;;;;106877;1301;21984;-75
2022/12/22 17:53:47;;;;;;;16.30;7.00;;;;;;;;;;107114;1291;22159;-76
2022/12/22 17:56:18;;;;;;;14.60;5.90;;;;;;;;;;106888;1307;22011;-76
2022/12/22 17:58:47;;;;;;;13.70;6.10;;;;;;;;;;106702;1310;22079;-77
2022/12/22 18:01:38;;;;;;;13.00;6.10;;;;;;;;;;106938;1300;22064;-78
2022/12/22 18:04:08;;;;;;;15.60;7.20;;;;;;;;;;106696;1309;22104;-78
2022/12/22 18:06:38;;;;;;;18.40;7.70;;;;;;;;;;106688;1307;22096;-77
2022/12/22 18:09:10;;;;;;;12.10;6.10;;;;;;;;;;106898;1299;22054;-76
2022/12/22 18:11:40;;;;;;;15.10;6.30;;;;;;;;;;106752;1307;22127;-76